sensor_id;sensor_type;location;lat;lon;timestamp;P1;P2;P0
65574;PMS5003;52216;54.942;73.394;2022-11-20T00:02:26;0.25;0.00;0.00
65574;PMS5003;52216;54.942;73.394;2022-11-20T00:05:31;1.00;1.00;0.00
65574;PMS5003;52216;54.942;73.394;2022-11-20T00:08:33;0.00;0.00;0.00
65574;PMS5003;52216;54.942;73.394;2022-11-20T00:11:37;0.50;0.00;0.00
65574;PMS5003;52216;54.942;73.394;2022-11-20T00:14:50;3.00;3.00;0.00
65574;PMS5003;52216;54.942;73.394;2022-11-20T00:17:58;1.00;1.00;0.00
65574;PMS5003;52216;54.942;73.394;2022-11-20T00:21:00;0.25;0.00;0.00
65574;PMS5003;52216;54.942;73.394;2022-11-20T00:24:03;1.00;1.00;0.00
65574;PMS5003;52216;54.942;73.394;2022-11-20T00:27:05;2.00;2.00;0.00
65574;PMS5003;52216;54.942;73.394;2022-11-20T00:30:08;1.75;1.00;0.00
65574;PMS5003;52216;54.942;73.394;2022-11-20T00:33:10;1.00;1.00;0.00
65574;PMS5003;52216;54.942;73.394;2022-11-20T00:36:14;1.00;0.00;0.00
65574;PMS5003;52216;54.942;73.394;2022-11-20T00:39:23;1.00;1.00;0.00
65574;PMS5003;52216;54.942;73.394;2022-11-20T00:42:27;0.00;0.00;0.00
65574;PMS5003;52216;54.942;73.394;2022-11-20T00:45:30;0.00;0.00;0.00
65574;PMS5003;52216;54.942;73.394;2022-11-20T00:48:37;1.00;1.00;0.00
65574;PMS5003;52216;54.942;73.394;2022-11-20T00:51:40;3.00;3.00;1.00
65574;PMS5003;52216;54.942;73.394;2022-11-20T00:54:42;2.00;2.00;1.00
65574;PMS5003;52216;54.942;73.394;2022-11-20T00:57:54;5.67;5.00;2.33
65574;PMS5003;52216;54.942;73.394;2022-11-20T01:01:02;8.00;6.00;2.00
65574;PMS5003;52216;54.942;73.394;2022-11-20T01:04:11;8.00;7.00;3.00
65574;PMS5003;52216;54.942;73.394;2022-11-20T01:07:14;7.00;5.00;1.00
65574;PMS5003;52216;54.942;73.394;2022-11-20T01:10:17;5.75;5.00;1.00
65574;PMS5003;52216;54.942;73.394;2022-11-20T01:13:31;6.25;5.00;1.00
65574;PMS5003;52216;54.942;73.394;2022-11-20T01:16:50;5.00;3.00;1.00
65574;PMS5003;52216;54.942;73.394;2022-11-20T01:19:53;5.00;3.75;1.00
65574;PMS5003;52216;54.942;73.394;2022-11-20T01:22:56;7.00;6.00;1.00
65574;PMS5003;52216;54.942;73.394;2022-11-20T01:26:00;6.00;5.00;2.00
65574;PMS5003;52216;54.942;73.394;2022-11-20T01:29:04;6.75;6.00;1.00
65574;PMS5003;52216;54.942;73.394;2022-11-20T01:32:11;6.00;5.00;2.00
65574;PMS5003;52216;54.942;73.394;2022-11-20T01:35:19;5.00;3.25;1.00
65574;PMS5003;52216;54.942;73.394;2022-11-20T01:38:22;6.00;5.00;1.00
65574;PMS5003;52216;54.942;73.394;2022-11-20T01:41:26;5.75;4.25;2.00
65574;PMS5003;52216;54.942;73.394;2022-11-20T01:44:49;5.50;4.25;2.00
65574;PMS5003;52216;54.942;73.394;2022-11-20T01:47:53;6.00;5.00;1.00
65574;PMS5003;52216;54.942;73.394;2022-11-20T01:50:56;5.00;4.00;0.00
65574;PMS5003;52216;54.942;73.394;2022-11-20T01:54:06;5.00;3.00;1.25
65574;PMS5003;52216;54.942;73.394;2022-11-20T01:57:10;4.00;2.00;1.00
65574;PMS5003;52216;54.942;73.394;2022-11-20T02:00:15;4.50;4.50;1.00
65574;PMS5003;52216;54.942;73.394;2022-11-20T02:03:19;6.50;6.00;3.00
65574;PMS5003;52216;54.942;73.394;2022-11-20T02:06:25;7.75;6.00;2.75
65574;PMS5003;52216;54.942;73.394;2022-11-20T02:09:28;8.50;5.25;2.50
65574;PMS5003;52216;54.942;73.394;2022-11-20T02:12:31;11.50;8.00;3.00
65574;PMS5003;52216;54.942;73.394;2022-11-20T02:15:52;10.00;8.00;3.00
65574;PMS5003;52216;54.942;73.394;2022-11-20T02:19:06;10.00;9.00;4.00
65574;PMS5003;52216;54.942;73.394;2022-11-20T02:22:13;10.00;8.00;4.00
65574;PMS5003;52216;54.942;73.394;2022-11-20T02:25:17;10.00;9.00;3.00
65574;PMS5003;52216;54.942;73.394;2022-11-20T02:28:31;9.00;6.00;2.00
65574;PMS5003;52216;54.942;73.394;2022-11-20T02:31:36;6.25;6.00;3.00
65574;PMS5003;52216;54.942;73.394;2022-11-20T02:34:40;9.00;7.75;4.25
65574;PMS5003;52216;54.942;73.394;2022-11-20T02:37:42;9.00;7.25;4.00
65574;PMS5003;52216;54.942;73.394;2022-11-20T02:40:45;10.75;9.75;3.25
65574;PMS5003;52216;54.942;73.394;2022-11-20T02:43:58;6.25;4.50;1.00
65574;PMS5003;52216;54.942;73.394;2022-11-20T02:47:01;4.00;4.00;2.00
65574;PMS5003;52216;54.942;73.394;2022-11-20T02:50:04;4.00;4.00;1.00
65574;PMS5003;52216;54.942;73.394;2022-11-20T02:53:08;5.00;5.00;2.00
65574;PMS5003;52216;54.942;73.394;2022-11-20T02:56:11;6.00;5.00;1.00
65574;PMS5003;52216;54.942;73.394;2022-11-20T02:59:17;7.25;5.50;1.00
65574;PMS5003;52216;54.942;73.394;2022-11-20T03:02:20;6.00;5.75;2.00
65574;PMS5003;52216;54.942;73.394;2022-11-20T03:05:24;10.50;8.00;2.00
65574;PMS5003;52216;54.942;73.394;2022-11-20T03:08:37;12.00;9.25;3.00
65574;PMS5003;52216;54.942;73.394;2022-11-20T03:11:40;15.50;13.00;5.75
65574;PMS5003;52216;54.942;73.394;2022-11-20T03:14:42;18.25;17.00;9.00
65574;PMS5003;52216;54.942;73.394;2022-11-20T03:17:45;18.67;15.00;8.00
65574;PMS5003;52216;54.942;73.394;2022-11-20T03:20:57;22.00;18.67;11.00
65574;PMS5003;52216;54.942;73.394;2022-11-20T03:23:59;22.00;18.25;12.00
65574;PMS5003;52216;54.942;73.394;2022-11-20T03:27:03;19.00;17.75;11.75
65574;PMS5003;52216;54.942;73.394;2022-11-20T03:30:07;15.00;14.25;8.00
65574;PMS5003;52216;54.942;73.394;2022-11-20T03:33:14;19.00;17.50;9.25
65574;PMS5003;52216;54.942;73.394;2022-11-20T03:36:26;20.00;17.00;10.00
65574;PMS5003;52216;54.942;73.394;2022-11-20T03:39:35;20.00;18.67;11.00
65574;PMS5003;52216;54.942;73.394;2022-11-20T03:42:37;22.75;19.50;12.00
65574;PMS5003;52216;54.942;73.394;2022-11-20T03:45:52;24.00;20.00;12.00
65574;PMS5003;52216;54.942;73.394;2022-11-20T03:48:54;25.75;21.25;13.00
65574;PMS5003;52216;54.942;73.394;2022-11-20T03:52:04;24.00;20.00;13.00
65574;PMS5003;52216;54.942;73.394;2022-11-20T03:55:06;22.00;20.00;12.00
65574;PMS5003;52216;54.942;73.394;2022-11-20T03:58:13;22.00;20.00;12.00
65574;PMS5003;52216;54.942;73.394;2022-11-20T04:01:17;22.00;20.00;12.50
65574;PMS5003;52216;54.942;73.394;2022-11-20T04:04:19;24.00;20.00;12.00
65574;PMS5003;52216;54.942;73.394;2022-11-20T04:07:21;25.50;20.00;12.00
65574;PMS5003;52216;54.942;73.394;2022-11-20T04:10:33;29.00;22.00;13.00
65574;PMS5003;52216;54.942;73.394;2022-11-20T04:13:40;26.00;20.00;12.00
65574;PMS5003;52216;54.942;73.394;2022-11-20T04:16:53;20.00;18.00;12.00
65574;PMS5003;52216;54.942;73.394;2022-11-20T04:19:55;20.25;18.25;11.00
65574;PMS5003;52216;54.942;73.394;2022-11-20T04:22:57;23.67;20.00;12.00
65574;PMS5003;52216;54.942;73.394;2022-11-20T04:26:11;22.00;20.00;12.00
65574;PMS5003;52216;54.942;73.394;2022-11-20T04:29:14;19.00;15.00;9.00
65574;PMS5003;52216;54.942;73.394;2022-11-20T04:32:16;14.00;13.00;5.00
65574;PMS5003;52216;54.942;73.394;2022-11-20T04:35:18;12.00;12.00;4.00
65574;PMS5003;52216;54.942;73.394;2022-11-20T04:38:27;12.50;10.00;4.00
65574;PMS5003;52216;54.942;73.394;2022-11-20T04:41:32;10.25;8.50;3.50
65574;PMS5003;52216;54.942;73.394;2022-11-20T04:44:45;8.50;8.00;3.00
65574;PMS5003;52216;54.942;73.394;2022-11-20T04:47:58;12.25;10.00;4.75
65574;PMS5003;52216;54.942;73.394;2022-11-20T04:51:06;13.00;12.00;5.00
65574;PMS5003;52216;54.942;73.394;2022-11-20T04:54:13;12.00;12.00;4.00
65574;PMS5003;52216;54.942;73.394;2022-11-20T04:57:15;17.25;13.75;6.00
65574;PMS5003;52216;54.942;73.394;2022-11-20T05:00:19;14.67;11.67;3.00
65574;PMS5003;52216;54.942;73.394;2022-11-20T05:03:21;11.75;10.00;4.00
65574;PMS5003;52216;54.942;73.394;2022-11-20T05:06:34;13.50;8.75;3.25
65574;PMS5003;52216;54.942;73.394;2022-11-20T05:09:37;12.00;10.00;5.00
65574;PMS5003;52216;54.942;73.394;2022-11-20T05:12:44;11.00;11.00;3.00
65574;PMS5003;52216;54.942;73.394;2022-11-20T05:15:46;9.33;9.00;3.00
65574;PMS5003;52216;54.942;73.394;2022-11-20T05:18:54;7.00;5.00;1.75
65574;PMS5003;52216;54.942;73.394;2022-11-20T05:21:57;7.00;4.00;1.00
65574;PMS5003;52216;54.942;73.394;2022-11-20T05:25:11;5.00;5.00;2.00
65574;PMS5003;52216;54.942;73.394;2022-11-20T05:28:24;4.75;4.00;1.00
65574;PMS5003;52216;54.942;73.394;2022-11-20T05:31:32;4.00;3.00;1.00
65574;PMS5003;52216;54.942;73.394;2022-11-20T05:34:36;4.50;4.50;2.00
65574;PMS5003;52216;54.942;73.394;2022-11-20T05:37:49;5.00;5.00;1.00
65574;PMS5003;52216;54.942;73.394;2022-11-20T05:40:53;4.00;3.25;1.00
65574;PMS5003;52216;54.942;73.394;2022-11-20T05:43:56;3.00;2.00;1.00
65574;PMS5003;52216;54.942;73.394;2022-11-20T05:46:58;2.00;2.00;0.00
65574;PMS5003;52216;54.942;73.394;2022-11-20T05:50:01;1.00;1.00;0.00
65574;PMS5003;52216;54.942;73.394;2022-11-20T05:53:03;1.25;1.00;0.00
65574;PMS5003;52216;54.942;73.394;2022-11-20T05:56:15;1.00;0.00;0.00
65574;PMS5003;52216;54.942;73.394;2022-11-20T05:59:18;2.25;1.00;0.00
65574;PMS5003;52216;54.942;73.394;2022-11-20T06:02:20;1.00;1.00;0.00
65574;PMS5003;52216;54.942;73.394;2022-11-20T06:05:24;1.00;1.00;0.00
65574;PMS5003;52216;54.942;73.394;2022-11-20T06:08:27;2.00;2.00;0.00
65574;PMS5003;52216;54.942;73.394;2022-11-20T06:11:29;1.00;1.00;0.00
65574;PMS5003;52216;54.942;73.394;2022-11-20T06:14:31;3.00;3.00;0.00
65574;PMS5003;52216;54.942;73.394;2022-11-20T06:17:39;1.00;1.00;0.00
65574;PMS5003;52216;54.942;73.394;2022-11-20T06:20:47;3.00;2.75;0.00
65574;PMS5003;52216;54.942;73.394;2022-11-20T06:23:59;2.00;2.00;0.00
65574;PMS5003;52216;54.942;73.394;2022-11-20T06:27:06;2.00;1.00;0.00
65574;PMS5003;52216;54.942;73.394;2022-11-20T06:30:09;1.00;1.00;0.00
65574;PMS5003;52216;54.942;73.394;2022-11-20T06:33:12;1.00;1.00;0.00
65574;PMS5003;52216;54.942;73.394;2022-11-20T06:36:16;2.00;1.75;0.00
65574;PMS5003;52216;54.942;73.394;2022-11-20T06:39:20;1.00;1.00;0.00
65574;PMS5003;52216;54.942;73.394;2022-11-20T06:42:23;0.00;0.00;0.00
65574;PMS5003;52216;54.942;73.394;2022-11-20T06:45:25;1.00;1.00;0.00
65574;PMS5003;52216;54.942;73.394;2022-11-20T06:48:39;1.00;1.00;0.00
65574;PMS5003;52216;54.942;73.394;2022-11-20T06:51:42;1.50;1.50;0.00
65574;PMS5003;52216;54.942;73.394;2022-11-20T06:54:55;1.00;0.00;0.00
65574;PMS5003;52216;54.942;73.394;2022-11-20T06:57:59;1.00;1.00;0.00
65574;PMS5003;52216;54.942;73.394;2022-11-20T07:01:04;1.75;1.00;0.00
65574;PMS5003;52216;54.942;73.394;2022-11-20T07:04:07;4.50;3.00;0.00
65574;PMS5003;52216;54.942;73.394;2022-11-20T07:07:10;1.00;1.00;0.00
65574;PMS5003;52216;54.942;73.394;2022-11-20T07:10:13;0.00;0.00;0.00
65574;PMS5003;52216;54.942;73.394;2022-11-20T07:13:28;1.00;1.00;0.00
65574;PMS5003;52216;54.942;73.394;2022-11-20T07:16:36;0.50;0.00;0.00
65574;PMS5003;52216;54.942;73.394;2022-11-20T07:19:39;0.00;0.00;0.00
65574;PMS5003;52216;54.942;73.394;2022-11-20T07:22:42;1.00;1.00;0.00
65574;PMS5003;52216;54.942;73.394;2022-11-20T07:25:55;1.25;1.00;0.00
65574;PMS5003;52216;54.942;73.394;2022-11-20T07:28:57;1.00;0.00;0.00
65574;PMS5003;52216;54.942;73.394;2022-11-20T07:32:00;1.00;1.00;0.00
65574;PMS5003;52216;54.942;73.394;2022-11-20T07:35:13;1.00;1.00;0.00
65574;PMS5003;52216;54.942;73.394;2022-11-20T07:38:16;0.00;0.00;0.00
65574;PMS5003;52216;54.942;73.394;2022-11-20T07:41:19;1.00;1.00;0.00
65574;PMS5003;52216;54.942;73.394;2022-11-20T07:44:22;1.00;1.00;0.00
65574;PMS5003;52216;54.942;73.394;2022-11-20T07:47:36;2.00;2.00;0.00
65574;PMS5003;52216;54.942;73.394;2022-11-20T07:50:45;2.00;1.00;0.00
65574;PMS5003;52216;54.942;73.394;2022-11-20T07:53:50;1.00;0.50;0.00
65574;PMS5003;52216;54.942;73.394;2022-11-20T07:56:53;1.50;1.00;0.00
65574;PMS5003;52216;54.942;73.394;2022-11-20T07:59:56;2.00;2.00;0.00
65574;PMS5003;52216;54.942;73.394;2022-11-20T08:03:09;1.00;0.75;0.00
65574;PMS5003;52216;54.942;73.394;2022-11-20T08:06:12;2.25;1.00;0.00
65574;PMS5003;52216;54.942;73.394;2022-11-20T08:09:15;0.00;0.00;0.00
65574;PMS5003;52216;54.942;73.394;2022-11-20T08:12:23;2.00;1.00;0.00
65574;PMS5003;52216;54.942;73.394;2022-11-20T08:15:49;1.00;0.00;0.00
65574;PMS5003;52216;54.942;73.394;2022-11-20T08:18:56;1.00;0.75;0.00
65574;PMS5003;52216;54.942;73.394;2022-11-20T08:22:04;1.00;1.00;0.00
65574;PMS5003;52216;54.942;73.394;2022-11-20T08:25:12;1.00;1.00;0.00
65574;PMS5003;52216;54.942;73.394;2022-11-20T08:28:25;2.00;1.00;0.00
65574;PMS5003;52216;54.942;73.394;2022-11-20T08:31:27;1.00;1.00;0.00
65574;PMS5003;52216;54.942;73.394;2022-11-20T08:34:29;0.00;0.00;0.00
65574;PMS5003;52216;54.942;73.394;2022-11-20T08:37:32;1.00;0.00;0.00
65574;PMS5003;52216;54.942;73.394;2022-11-20T08:40:46;1.00;1.00;0.00
65574;PMS5003;52216;54.942;73.394;2022-11-20T08:44:09;1.75;1.00;0.00
65574;PMS5003;52216;54.942;73.394;2022-11-20T08:47:17;1.00;0.25;0.00
65574;PMS5003;52216;54.942;73.394;2022-11-20T08:50:20;0.75;0.75;0.00
65574;PMS5003;52216;54.942;73.394;2022-11-20T08:53:23;0.00;0.00;0.00
65574;PMS5003;52216;54.942;73.394;2022-11-20T08:56:26;1.00;1.00;0.00
65574;PMS5003;52216;54.942;73.394;2022-11-20T08:59:32;0.00;0.00;0.00
65574;PMS5003;52216;54.942;73.394;2022-11-20T09:02:35;1.00;0.00;0.00
65574;PMS5003;52216;54.942;73.394;2022-11-20T09:05:39;1.00;0.00;0.00
65574;PMS5003;52216;54.942;73.394;2022-11-20T09:08:42;1.00;1.00;0.00
65574;PMS5003;52216;54.942;73.394;2022-11-20T09:11:45;2.00;1.00;0.00
65574;PMS5003;52216;54.942;73.394;2022-11-20T09:14:52;2.00;2.00;0.00
65574;PMS5003;52216;54.942;73.394;2022-11-20T09:18:00;2.00;1.50;0.00
65574;PMS5003;52216;54.942;73.394;2022-11-20T09:21:05;1.75;1.00;0.00
65574;PMS5003;52216;54.942;73.394;2022-11-20T09:24:08;1.50;1.00;0.00
65574;PMS5003;52216;54.942;73.394;2022-11-20T09:27:11;0.00;0.00;0.00
65574;PMS5003;52216;54.942;73.394;2022-11-20T09:30:15;0.00;0.00;0.00
65574;PMS5003;52216;54.942;73.394;2022-11-20T09:33:18;0.00;0.00;0.00
65574;PMS5003;52216;54.942;73.394;2022-11-20T09:36:31;0.00;0.00;0.00
65574;PMS5003;52216;54.942;73.394;2022-11-20T09:39:44;0.00;0.00;0.00
65574;PMS5003;52216;54.942;73.394;2022-11-20T09:43:30;0.00;0.00;0.00
65574;PMS5003;52216;54.942;73.394;2022-11-20T09:55:53;0.00;0.00;0.00
65574;PMS5003;52216;54.942;73.394;2022-11-20T09:59:02;1.00;1.00;0.00
65574;PMS5003;52216;54.942;73.394;2022-11-20T10:12:27;2.00;1.00;0.00
65574;PMS5003;52216;54.942;73.394;2022-11-20T10:21:50;2.50;2.00;0.00
65574;PMS5003;52216;54.942;73.394;2022-11-20T10:25:06;2.50;1.75;0.00
65574;PMS5003;52216;54.942;73.394;2022-11-20T10:28:27;1.00;1.00;0.00
65574;PMS5003;52216;54.942;73.394;2022-11-20T10:31:34;2.00;1.00;0.00
65574;PMS5003;52216;54.942;73.394;2022-11-20T10:37:48;0.50;0.00;0.00
65574;PMS5003;52216;54.942;73.394;2022-11-20T10:40:53;2.25;1.25;0.00
65574;PMS5003;52216;54.942;73.394;2022-11-20T10:44:26;1.75;1.00;0.00
65574;PMS5003;52216;54.942;73.394;2022-11-20T10:47:48;3.00;2.50;0.00
65574;PMS5003;52216;54.942;73.394;2022-11-20T11:00:42;3.00;2.50;0.00
65574;PMS5003;52216;54.942;73.394;2022-11-20T11:03:45;3.00;3.00;0.00
65574;PMS5003;52216;54.942;73.394;2022-11-20T11:06:47;2.00;2.00;0.00
65574;PMS5003;52216;54.942;73.394;2022-11-20T11:09:54;3.00;2.00;0.00
65574;PMS5003;52216;54.942;73.394;2022-11-20T11:12:57;2.00;2.00;0.00
65574;PMS5003;52216;54.942;73.394;2022-11-20T11:16:00;4.00;3.00;0.00
65574;PMS5003;52216;54.942;73.394;2022-11-20T11:19:13;1.00;0.75;0.00
65574;PMS5003;52216;54.942;73.394;2022-11-20T11:22:21;1.00;1.00;0.00
65574;PMS5003;52216;54.942;73.394;2022-11-20T11:25:34;1.00;1.00;0.00
65574;PMS5003;52216;54.942;73.394;2022-11-20T11:28:38;1.00;1.00;0.00
65574;PMS5003;52216;54.942;73.394;2022-11-20T11:31:41;2.00;1.25;0.00
65574;PMS5003;52216;54.942;73.394;2022-11-20T11:34:59;2.00;1.00;0.00
65574;PMS5003;52216;54.942;73.394;2022-11-20T11:38:06;1.00;1.00;0.00
65574;PMS5003;52216;54.942;73.394;2022-11-20T11:41:14;3.00;3.00;0.00
65574;PMS5003;52216;54.942;73.394;2022-11-20T11:44:19;3.75;3.00;0.00
65574;PMS5003;52216;54.942;73.394;2022-11-20T11:50:48;1.00;1.00;0.00
65574;PMS5003;52216;54.942;73.394;2022-11-20T11:54:02;2.00;2.00;0.00
65574;PMS5003;52216;54.942;73.394;2022-11-20T11:57:20;3.00;3.00;0.00
65574;PMS5003;52216;54.942;73.394;2022-11-20T12:00:26;2.00;2.00;0.00
65574;PMS5003;52216;54.942;73.394;2022-11-20T12:03:38;4.00;4.00;0.00
65574;PMS5003;52216;54.942;73.394;2022-11-20T12:06:44;2.00;2.00;1.00
65574;PMS5003;52216;54.942;73.394;2022-11-20T12:09:48;5.00;4.00;1.00
65574;PMS5003;52216;54.942;73.394;2022-11-20T12:12:54;4.00;3.00;1.25
65574;PMS5003;52216;54.942;73.394;2022-11-20T12:16:05;3.50;3.25;1.25
65574;PMS5003;52216;54.942;73.394;2022-11-20T12:19:11;4.00;3.75;1.00
65574;PMS5003;52216;54.942;73.394;2022-11-20T12:22:35;5.00;4.00;1.00
65574;PMS5003;52216;54.942;73.394;2022-11-20T12:25:41;6.00;5.00;1.00
65574;PMS5003;52216;54.942;73.394;2022-11-20T12:29:03;3.00;3.00;1.00
65574;PMS5003;52216;54.942;73.394;2022-11-20T12:38:58;5.00;4.00;1.00
65574;PMS5003;52216;54.942;73.394;2022-11-20T12:42:06;4.00;4.00;1.00
65574;PMS5003;52216;54.942;73.394;2022-11-20T12:51:56;5.00;5.00;1.00
65574;PMS5003;52216;54.942;73.394;2022-11-20T13:01:50;3.00;2.50;0.00
65574;PMS5003;52216;54.942;73.394;2022-11-20T13:08:00;4.00;4.00;1.00
65574;PMS5003;52216;54.942;73.394;2022-11-20T13:11:18;3.50;3.00;1.00
65574;PMS5003;52216;54.942;73.394;2022-11-20T13:14:31;3.00;2.75;1.00
65574;PMS5003;52216;54.942;73.394;2022-11-20T13:20:44;4.50;4.00;1.00
65574;PMS5003;52216;54.942;73.394;2022-11-20T13:23:47;3.00;3.00;1.00
65574;PMS5003;52216;54.942;73.394;2022-11-20T13:27:00;4.50;3.00;0.00
65574;PMS5003;52216;54.942;73.394;2022-11-20T13:30:18;4.25;3.00;0.25
65574;PMS5003;52216;54.942;73.394;2022-11-20T13:33:22;3.00;3.00;1.00
65574;PMS5003;52216;54.942;73.394;2022-11-20T13:36:32;3.00;3.00;1.00
65574;PMS5003;52216;54.942;73.394;2022-11-20T13:39:37;5.00;5.00;1.00
65574;PMS5003;52216;54.942;73.394;2022-11-20T13:42:46;4.50;3.25;1.00
65574;PMS5003;52216;54.942;73.394;2022-11-20T13:46:05;5.00;4.00;1.00
65574;PMS5003;52216;54.942;73.394;2022-11-20T13:49:09;4.00;3.00;1.00
65574;PMS5003;52216;54.942;73.394;2022-11-20T14:02:27;6.00;5.00;2.00
65574;PMS5003;52216;54.942;73.394;2022-11-20T14:05:32;5.50;5.00;2.00
65574;PMS5003;52216;54.942;73.394;2022-11-20T14:08:42;5.00;4.00;1.50
65574;PMS5003;52216;54.942;73.394;2022-11-20T14:11:57;7.00;5.00;2.00
65574;PMS5003;52216;54.942;73.394;2022-11-20T14:15:00;5.00;4.25;2.00
65574;PMS5003;52216;54.942;73.394;2022-11-20T14:18:20;5.00;4.00;1.00
65574;PMS5003;52216;54.942;73.394;2022-11-20T14:21:26;5.00;4.75;1.00
65574;PMS5003;52216;54.942;73.394;2022-11-20T14:24:30;5.00;5.00;2.00
65574;PMS5003;52216;54.942;73.394;2022-11-20T14:27:38;3.00;3.00;1.00
65574;PMS5003;52216;54.942;73.394;2022-11-20T14:30:42;5.00;4.75;1.00
65574;PMS5003;52216;54.942;73.394;2022-11-20T14:33:46;5.00;4.75;1.00
65574;PMS5003;52216;54.942;73.394;2022-11-20T14:36:53;5.00;5.00;2.25
65574;PMS5003;52216;54.942;73.394;2022-11-20T14:40:05;5.25;5.00;2.00
65574;PMS5003;52216;54.942;73.394;2022-11-20T14:43:44;5.00;5.00;1.50
65574;PMS5003;52216;54.942;73.394;2022-11-20T14:46:40;6.50;5.50;2.00
65574;PMS5003;52216;54.942;73.394;2022-11-20T14:49:52;6.00;6.00;3.00
65574;PMS5003;52216;54.942;73.394;2022-11-20T14:52:57;8.00;6.50;3.00
65574;PMS5003;52216;54.942;73.394;2022-11-20T14:56:01;8.00;5.00;2.00
65574;PMS5003;52216;54.942;73.394;2022-11-20T14:59:07;8.00;5.50;3.00
65574;PMS5003;52216;54.942;73.394;2022-11-20T15:02:20;9.00;7.00;3.00
65574;PMS5003;52216;54.942;73.394;2022-11-20T15:05:25;9.00;7.00;3.00
65574;PMS5003;52216;54.942;73.394;2022-11-20T15:08:28;9.00;7.00;3.00
65574;PMS5003;52216;54.942;73.394;2022-11-20T15:11:32;9.00;8.50;3.25
65574;PMS5003;52216;54.942;73.394;2022-11-20T15:14:46;7.75;7.00;3.00
65574;PMS5003;52216;54.942;73.394;2022-11-20T15:17:49;7.00;6.00;3.00
65574;PMS5003;52216;54.942;73.394;2022-11-20T15:20:52;7.00;5.00;3.00
65574;PMS5003;52216;54.942;73.394;2022-11-20T15:23:57;8.00;6.00;3.00
65574;PMS5003;52216;54.942;73.394;2022-11-20T15:27:01;8.75;7.00;3.00
65574;PMS5003;52216;54.942;73.394;2022-11-20T15:30:14;5.00;4.00;1.25
65574;PMS5003;52216;54.942;73.394;2022-11-20T15:33:30;7.25;5.00;1.75
65574;PMS5003;52216;54.942;73.394;2022-11-20T15:36:43;9.00;6.50;3.00
65574;PMS5003;52216;54.942;73.394;2022-11-20T15:39:56;6.50;5.25;2.50
65574;PMS5003;52216;54.942;73.394;2022-11-20T15:42:59;9.00;6.00;2.00
65574;PMS5003;52216;54.942;73.394;2022-11-20T15:46:15;9.75;7.25;3.00
65574;PMS5003;52216;54.942;73.394;2022-11-20T15:49:23;9.00;7.50;2.75
65574;PMS5003;52216;54.942;73.394;2022-11-20T15:52:28;6.00;5.00;2.00
65574;PMS5003;52216;54.942;73.394;2022-11-20T15:55:36;8.75;7.00;3.00
65574;PMS5003;52216;54.942;73.394;2022-11-20T15:58:41;12.25;9.00;5.00
65574;PMS5003;52216;54.942;73.394;2022-11-20T16:01:50;11.25;9.00;3.00
65574;PMS5003;52216;54.942;73.394;2022-11-20T16:04:53;10.00;8.50;3.00
65574;PMS5003;52216;54.942;73.394;2022-11-20T16:07:56;8.00;5.75;3.00
65574;PMS5003;52216;54.942;73.394;2022-11-20T16:10:59;8.00;6.75;3.00
65574;PMS5003;52216;54.942;73.394;2022-11-20T16:14:09;8.00;7.00;2.50
65574;PMS5003;52216;54.942;73.394;2022-11-20T16:17:31;7.00;7.00;2.00
65574;PMS5003;52216;54.942;73.394;2022-11-20T16:20:53;7.00;7.00;2.00
65574;PMS5003;52216;54.942;73.394;2022-11-20T16:23:57;8.00;7.00;1.25
65574;PMS5003;52216;54.942;73.394;2022-11-20T16:27:00;6.50;5.25;2.00
65574;PMS5003;52216;54.942;73.394;2022-11-20T16:30:03;4.50;3.50;2.00
65574;PMS5003;52216;54.942;73.394;2022-11-20T16:33:17;5.00;5.00;1.00
65574;PMS5003;52216;54.942;73.394;2022-11-20T16:36:21;4.00;3.00;1.00
65574;PMS5003;52216;54.942;73.394;2022-11-20T16:39:24;5.00;3.00;1.00
65574;PMS5003;52216;54.942;73.394;2022-11-20T16:42:37;4.00;2.50;1.00
65574;PMS5003;52216;54.942;73.394;2022-11-20T16:45:41;5.00;3.00;1.00
65574;PMS5003;52216;54.942;73.394;2022-11-20T16:49:05;5.50;5.00;1.00
65574;PMS5003;52216;54.942;73.394;2022-11-20T16:52:08;4.75;4.00;1.00
65574;PMS5003;52216;54.942;73.394;2022-11-20T16:55:11;5.00;4.50;1.00
65574;PMS5003;52216;54.942;73.394;2022-11-20T16:58:25;4.00;3.00;1.00
65574;PMS5003;52216;54.942;73.394;2022-11-20T17:01:28;3.00;3.00;1.00
65574;PMS5003;52216;54.942;73.394;2022-11-20T17:04:32;5.00;4.75;1.00
65574;PMS5003;52216;54.942;73.394;2022-11-20T17:07:40;6.00;4.00;1.00
65574;PMS5003;52216;54.942;73.394;2022-11-20T17:10:44;5.00;4.00;1.00
65574;PMS5003;52216;54.942;73.394;2022-11-20T17:13:56;5.75;5.00;1.00
65574;PMS5003;52216;54.942;73.394;2022-11-20T17:16:59;5.00;4.00;2.50
65574;PMS5003;52216;54.942;73.394;2022-11-20T17:20:07;6.00;5.00;1.00
65574;PMS5003;52216;54.942;73.394;2022-11-20T17:23:16;5.00;4.00;1.00
65574;PMS5003;52216;54.942;73.394;2022-11-20T17:26:24;3.25;3.00;1.00
65574;PMS5003;52216;54.942;73.394;2022-11-20T17:29:27;3.00;2.00;0.00
65574;PMS5003;52216;54.942;73.394;2022-11-20T17:32:30;3.00;3.00;0.00
65574;PMS5003;52216;54.942;73.394;2022-11-20T17:35:42;2.00;1.00;0.00
65574;PMS5003;52216;54.942;73.394;2022-11-20T17:38:45;4.00;3.00;0.00
65574;PMS5003;52216;54.942;73.394;2022-11-20T17:41:47;3.00;3.00;1.00
65574;PMS5003;52216;54.942;73.394;2022-11-20T17:45:14;1.50;1.50;0.25
65574;PMS5003;52216;54.942;73.394;2022-11-20T17:48:17;3.00;2.00;0.00
65574;PMS5003;52216;54.942;73.394;2022-11-20T17:51:20;4.00;3.00;0.25
65574;PMS5003;52216;54.942;73.394;2022-11-20T17:54:23;3.00;3.00;1.00
65574;PMS5003;52216;54.942;73.394;2022-11-20T17:57:26;4.00;3.00;1.00
65574;PMS5003;52216;54.942;73.394;2022-11-20T18:01:03;3.00;3.00;0.00
65574;PMS5003;52216;54.942;73.394;2022-11-20T18:04:11;2.25;2.00;0.00
65574;PMS5003;52216;54.942;73.394;2022-11-20T18:07:15;3.00;3.00;0.00
65574;PMS5003;52216;54.942;73.394;2022-11-20T18:10:18;3.25;3.00;0.00
65574;PMS5003;52216;54.942;73.394;2022-11-20T18:13:32;5.00;4.00;1.00
65574;PMS5003;52216;54.942;73.394;2022-11-20T18:16:55;6.75;5.00;1.00
65574;PMS5003;52216;54.942;73.394;2022-11-20T18:20:05;4.25;4.25;0.00
65574;PMS5003;52216;54.942;73.394;2022-11-20T18:23:09;5.00;5.00;1.00
65574;PMS5003;52216;54.942;73.394;2022-11-20T18:26:24;4.00;3.75;1.00
65574;PMS5003;52216;54.942;73.394;2022-11-20T18:29:32;5.00;5.00;1.00
65574;PMS5003;52216;54.942;73.394;2022-11-20T18:32:35;4.00;4.00;2.00
65574;PMS5003;52216;54.942;73.394;2022-11-20T18:35:38;3.00;2.00;0.00
65574;PMS5003;52216;54.942;73.394;2022-11-20T18:38:49;4.50;3.75;1.00
65574;PMS5003;52216;54.942;73.394;2022-11-20T18:41:52;4.00;3.00;2.00
65574;PMS5003;52216;54.942;73.394;2022-11-20T18:45:14;5.00;5.00;1.00
65574;PMS5003;52216;54.942;73.394;2022-11-20T18:48:17;6.50;5.50;2.50
65574;PMS5003;52216;54.942;73.394;2022-11-20T18:51:20;5.50;5.00;1.00
65574;PMS5003;52216;54.942;73.394;2022-11-20T18:54:23;7.00;5.00;1.00
65574;PMS5003;52216;54.942;73.394;2022-11-20T18:57:36;5.50;4.00;1.00
65574;PMS5003;52216;54.942;73.394;2022-11-20T19:00:39;5.00;3.00;1.00
65574;PMS5003;52216;54.942;73.394;2022-11-20T19:03:42;4.00;3.00;1.00
65574;PMS5003;52216;54.942;73.394;2022-11-20T19:06:50;5.00;3.00;1.00
65574;PMS5003;52216;54.942;73.394;2022-11-20T19:10:06;4.00;3.00;1.00
65574;PMS5003;52216;54.942;73.394;2022-11-20T19:13:09;5.00;4.75;1.00
65574;PMS5003;52216;54.942;73.394;2022-11-20T19:16:13;5.00;5.00;2.00